Portada
METAR-TAF:

METAR-TAF

Aeroports :

Aeroport de Girona - Costa Brava

Girona, Espanya

latitud: 41-54N, longitud: 002-46E, altitud: 143 m

Observació

L'informe es va fer fa 24 minuts, a les 16:00 UTC
Vent 3 kt del Sud-Oest
Temperatura 11°C
Humitat 71%
Pressió 1022 hPa
Visibilitat 10 km o més
sense núvols per sota de 1500 mi sense presència de cumulonimbus.

METAR: LEGE 101600Z 22003KT CAVOK 11/06 Q1022

Hora: 17:24 (16:24 UTC)

Pronòstic

L'informe es va fer fa 5 hores i 24 minuts, a les 11:00 UTC
Pronòstic vàlid del 10 a les 12 UTC al 11 a les 12 UTC
Vent 4 kt amb direcció variable
Visibilitat 10 km o més
sense núvols per sota de 1500 mi sense presència de cumulonimbus.

TAF: LEGE 101100Z 1012/1112 VRB04KT CAVOK TX15/1013Z TN03/1106Z

Observacions i pronòstics meteorològics de més de 4000 aeroports (METAR i TAF).

Les estacions disponibles són els punts grocs i vermells al mapa.

Posi el ratolí al punt desitjat per veure el nom de l'estació.

Feu clic per veure les observacions i els pronòstics meteorològics.

Per canviar el mapa: feu clic els botons verds amb una creu de color negre per apropar; al botó verd amb un guió per allunyar la imatge; o en les fletxes verdes per a mapes adjacents.


METAR-TAF: